Ackermanville, Pennsylvania
Current Conditions -  °F | °C
As of 4:51 AM on Friday 24 Oct 2014 (Local Time) from KABE Reporting Station
Overcast Overcast  
Wind Chill: 54°   Ceiling: 2600
Heat Index: 54°   Visibility: 10mi
Dew Point: 43°   Wind: 13mph
Humidity: 66%   Direction: 330°NNW
Pressure: 29.85"   Gusts: 20mph
Location:  40.84°N, 75.22°W
Report Text: KABE 240851Z 33011G17KT 10SM OVC026 12/06 A2985 RMK AO2 SLP107 T01220061 53006
Loading
Personal Weather Stations






























Interactive Weather Map
Tropical Storm Tracking
New forecast layout! Learn more

10-Day Weather Forecast

Advertisements
Track Severe Weather on mobile